METAR Data
IDs: Format: Raw Decoded Include TAF

Data at: 0408 UTC 21 Sep 2018

KFTY 210353Z 11005KT 10SM CLR 27/18 A3013 RMK AO2 SLP193 T02670178
KFTY 210253Z VRB05KT 10SM CLR 28/18 A3012 RMK AO2 SLP188 T02780178 53017
KFTY 210153Z 00000KT 10SM CLR 23/21 A3010 RMK AO2 SLP184 T02330211
KFTY 210053Z 05003KT 10SM CLR 25/20 A3009 RMK AO2 SLP180 T02500200
KFTY 202353Z 10005KT 10SM CLR 31/18 A3007 RMK AO2 SLP173 T03060178 10350 20306 53004
KFTY 202253Z 10005KT 10SM SCT070 BKN090 32/18 A3006 RMK AO2 SLP169 T03220183
KFTY 202153Z 08006KT 10SM SCT070 33/19 A3006 RMK AO2 SLP168 T03280189
KFTY 202053Z 04005KT 10SM BKN070 BKN085 34/18 A3006 RMK AO2 SLP168 T03390178 56018
KFTY 201953Z 00000KT 10SM CLR 34/18 A3007 RMK AO2 SLP170 T03390178
KFTY 201853Z VRB03KT 10SM FEW090 33/19 A3009 RMK AO2 SLP178 T03330189
KFTY 201753Z 03007KT 10SM SCT055 33/18 A3011 RMK AO2 SLP187 T03280183 10333 20200 58015
KFTY 201653Z 16003KT 10SM SCT050 32/18 A3013 RMK AO2 SLP194 T03220183
KFTY 201553Z COR 00000KT 10SM SCT050 31/19 A3016 RMK AO2 SLP201 T03110189
KFTY 201453Z 00000KT 10SM CLR 30/21 A3016 RMK AO2 SLP202 T03000211 51016
KFTY 201353Z 05003KT 10SM CLR 27/21 A3015 RMK AO2 SLP199 T02670211
KFTY 201253Z 01003KT 9SM CLR 23/21 A3013 RMK AO2 SLP194 T02280211
KFTY 201153Z 00000KT 8SM CLR 20/20 A3011 RMK AO2 SLP186 T02000200 10222 20194 53019
KFTY 201053Z 00000KT 9SM CLR 20/20 A3008 RMK AO2 SLP176 T02000200
KFTY 200953Z 00000KT 7SM CLR 20/20 A3006 RMK AO2 SLP170 T02000200
KFTY 200853Z 00000KT 10SM CLR 21/21 A3005 RMK AO2 SLP166 T02060206 53002
KFTY 200753Z 00000KT 10SM CLR 21/21 A3004 RMK AO2 SLP163 T02060206
KFTY 200653Z 00000KT 10SM CLR 21/21 A3004 RMK AO2 SLP163 T02110211
KFTY 200553Z 00000KT 10SM CLR 22/21 A3005 RMK AO2 SLP164 T02170211 10283 20217 50002
KFTY 200453Z 00000KT 10SM CLR 22/21 A3005 RMK AO2 SLP166 T02220211 403440194
KFTY 200353Z 00000KT 10SM CLR 23/22 A3005 RMK AO2 SLP164 T02280217
KFTY 200253Z 00000KT 10SM CLR 23/22 A3004 RMK AO2 SLP162 T02330217 53019
KFTY 200153Z 00000KT 10SM CLR 24/21 A3002 RMK AO2 SLP157 T02390211
KFTY 200053Z 00000KT 10SM CLR 26/22 A3000 RMK AO2 SLP149 T02560217
KFTY 192353Z 00000KT 10SM CLR 28/20 A2998 RMK AO2 SLP143 T02830200 10344 20283 53005
KFTY 192253Z 32004KT 10SM FEW070 32/19 A2998 RMK AO2 SLP140 T03220189
KFTY 192153Z 27003KT 10SM SCT100 32/19 A2997 RMK AO2 SLP138 T03170194
KFTY 192053Z 35007KT 10SM BKN065 34/18 A2997 RMK AO2 SLP137 T03390183 56016
KFTY 191953Z 17004KT 10SM FEW050 33/18 A2998 RMK AO2 SLP140 T03330183
KFTY 191853Z 00000KT 10SM FEW050 32/18 A2999 RMK AO2 SLP146 T03170178
KFTY 191753Z COR 00000KT 10SM FEW060 33/19 A3002 RMK AO2 SLP154 T03280189 10328 20206 58013
KFTY 191653Z 34003KT 10SM CLR 32/20 A3004 RMK AO2 SLP160 T03170200